sensor_id;sensor_type;location;lat;lon;timestamp;P1;durP1;ratioP1;P2;durP2;ratioP2
9489;SDS011;4783;42.734;23.288;2022-10-22T07:51:27;38.83;;;26.05;;
9489;SDS011;4783;42.734;23.288;2022-10-22T07:53:52;38.83;;;28.40;;
9489;SDS011;4783;42.734;23.288;2022-10-22T07:56:18;36.63;;;25.67;;
9489;SDS011;4783;42.734;23.288;2022-10-22T07:58:43;35.33;;;25.77;;
9489;SDS011;4783;42.734;23.288;2022-10-22T08:01:08;42.90;;;24.42;;
9489;SDS011;4783;42.734;23.288;2022-10-22T08:30:12;39.90;;;25.73;;
9489;SDS011;4783;42.734;23.288;2022-10-22T08:32:38;34.63;;;22.42;;
9489;SDS011;4783;42.734;23.288;2022-10-22T08:35:04;32.83;;;20.90;;
9489;SDS011;4783;42.734;23.288;2022-10-22T08:37:29;30.23;;;20.52;;
9489;SDS011;4783;42.734;23.288;2022-10-22T08:39:54;36.28;;;24.80;;
9489;SDS011;4783;42.734;23.288;2022-10-22T08:49:50;31.95;;;20.88;;
9489;SDS011;4783;42.734;23.288;2022-10-22T08:52:17;32.75;;;19.58;;
9489;SDS011;4783;42.734;23.288;2022-10-22T08:54:56;26.38;;;19.10;;
9489;SDS011;4783;42.734;23.288;2022-10-22T09:05:46;25.05;;;17.55;;
9489;SDS011;4783;42.734;23.288;2022-10-22T09:07:51;23.58;;;16.60;;
9489;SDS011;4783;42.734;23.288;2022-10-22T09:10:18;27.40;;;17.17;;
9489;SDS011;4783;42.734;23.288;2022-10-22T09:12:45;23.15;;;17.88;;
9489;SDS011;4783;42.734;23.288;2022-10-22T09:15:12;26.20;;;16.48;;
9489;SDS011;4783;42.734;23.288;2022-10-22T09:17:40;19.90;;;17.02;;
9489;SDS011;4783;42.734;23.288;2022-10-22T09:20:18;25.20;;;16.27;;
9489;SDS011;4783;42.734;23.288;2022-10-22T09:25:25;19.27;;;16.95;;
9489;SDS011;4783;42.734;23.288;2022-10-22T09:27:51;24.30;;;17.08;;
9489;SDS011;4783;42.734;23.288;2022-10-22T09:30:22;19.95;;;16.38;;
9489;SDS011;4783;42.734;23.288;2022-10-22T09:33:10;29.77;;;16.48;;
9489;SDS011;4783;42.734;23.288;2022-10-22T09:35:55;32.35;;;16.63;;
9489;SDS011;4783;42.734;23.288;2022-10-22T09:38:25;20.80;;;16.42;;
9489;SDS011;4783;42.734;23.288;2022-10-22T09:40:52;23.90;;;17.30;;
9489;SDS011;4783;42.734;23.288;2022-10-22T09:43:18;22.35;;;17.02;;
9489;SDS011;4783;42.734;23.288;2022-10-22T09:45:44;24.65;;;17.27;;
9489;SDS011;4783;42.734;23.288;2022-10-22T09:50:49;23.63;;;17.42;;
9489;SDS011;4783;42.734;23.288;2022-10-22T09:53:20;24.38;;;17.05;;
9489;SDS011;4783;42.734;23.288;2022-10-22T09:55:53;24.17;;;17.85;;
9489;SDS011;4783;42.734;23.288;2022-10-22T09:58:19;20.98;;;17.73;;
9489;SDS011;4783;42.734;23.288;2022-10-22T10:00:46;27.20;;;18.67;;
9489;SDS011;4783;42.734;23.288;2022-10-22T10:03:21;25.35;;;19.55;;
9489;SDS011;4783;42.734;23.288;2022-10-22T10:05:48;32.88;;;19.83;;
9489;SDS011;4783;42.734;23.288;2022-10-22T10:08:15;23.38;;;19.75;;
9489;SDS011;4783;42.734;23.288;2022-10-22T10:10:46;24.98;;;18.58;;
9489;SDS011;4783;42.734;23.288;2022-10-22T10:13:24;26.30;;;19.55;;
9489;SDS011;4783;42.734;23.288;2022-10-22T10:20:58;26.33;;;18.00;;
9489;SDS011;4783;42.734;23.288;2022-10-22T10:23:44;21.50;;;17.30;;
9489;SDS011;4783;42.734;23.288;2022-10-22T10:26:19;25.30;;;18.42;;
9489;SDS011;4783;42.734;23.288;2022-10-22T10:36:38;28.30;;;18.17;;
9489;SDS011;4783;42.734;23.288;2022-10-22T10:46:25;31.48;;;17.77;;
9489;SDS011;4783;42.734;23.288;2022-10-22T10:51:36;29.35;;;18.10;;
9489;SDS011;4783;42.734;23.288;2022-10-22T10:56:41;24.55;;;17.98;;
9489;SDS011;4783;42.734;23.288;2022-10-22T11:01:41;27.05;;;18.77;;
9489;SDS011;4783;42.734;23.288;2022-10-22T11:06:37;24.92;;;16.48;;
9489;SDS011;4783;42.734;23.288;2022-10-22T11:09:10;24.65;;;17.02;;
9489;SDS011;4783;42.734;23.288;2022-10-22T11:14:19;28.65;;;18.23;;
9489;SDS011;4783;42.734;23.288;2022-10-22T11:17:00;26.67;;;18.27;;
9489;SDS011;4783;42.734;23.288;2022-10-22T11:19:29;29.73;;;18.67;;
9489;SDS011;4783;42.734;23.288;2022-10-22T11:22:10;22.50;;;17.02;;
9489;SDS011;4783;42.734;23.288;2022-10-22T11:24:39;24.80;;;17.30;;
9489;SDS011;4783;42.734;23.288;2022-10-22T11:29:40;22.77;;;16.27;;
9489;SDS011;4783;42.734;23.288;2022-10-22T11:32:09;22.27;;;16.58;;
9489;SDS011;4783;42.734;23.288;2022-10-22T11:34:36;27.02;;;18.70;;
9489;SDS011;4783;42.734;23.288;2022-10-22T11:37:04;23.40;;;16.02;;
9489;SDS011;4783;42.734;23.288;2022-10-22T11:39:41;23.35;;;15.57;;
9489;SDS011;4783;42.734;23.288;2022-10-22T11:42:11;25.27;;;15.90;;
9489;SDS011;4783;42.734;23.288;2022-10-22T11:47:34;23.67;;;15.98;;
9489;SDS011;4783;42.734;23.288;2022-10-22T11:50:16;23.38;;;14.82;;
9489;SDS011;4783;42.734;23.288;2022-10-22T11:53:01;19.63;;;14.57;;
9489;SDS011;4783;42.734;23.288;2022-10-22T11:55:31;23.40;;;14.75;;
9489;SDS011;4783;42.734;23.288;2022-10-22T11:58:00;23.40;;;14.35;;
9489;SDS011;4783;42.734;23.288;2022-10-22T12:00:47;19.52;;;14.40;;
9489;SDS011;4783;42.734;23.288;2022-10-22T12:05:41;20.35;;;14.35;;
9489;SDS011;4783;42.734;23.288;2022-10-22T12:08:23;23.77;;;14.02;;
9489;SDS011;4783;42.734;23.288;2022-10-22T12:10:50;22.38;;;14.55;;
9489;SDS011;4783;42.734;23.288;2022-10-22T12:13:23;21.75;;;16.38;;
9489;SDS011;4783;42.734;23.288;2022-10-22T12:15:50;17.60;;;13.95;;
9489;SDS011;4783;42.734;23.288;2022-10-22T12:18:16;17.85;;;13.85;;
9489;SDS011;4783;42.734;23.288;2022-10-22T12:20:42;25.63;;;13.93;;
9489;SDS011;4783;42.734;23.288;2022-10-22T12:23:10;33.50;;;14.60;;
9489;SDS011;4783;42.734;23.288;2022-10-22T12:25:37;22.55;;;13.77;;
9489;SDS011;4783;42.734;23.288;2022-10-22T12:28:03;19.70;;;14.52;;
9489;SDS011;4783;42.734;23.288;2022-10-22T12:30:30;20.33;;;14.13;;
9489;SDS011;4783;42.734;23.288;2022-10-22T12:32:59;17.58;;;13.60;;
9489;SDS011;4783;42.734;23.288;2022-10-22T12:35:26;18.17;;;13.18;;
9489;SDS011;4783;42.734;23.288;2022-10-22T12:37:55;19.55;;;13.00;;
9489;SDS011;4783;42.734;23.288;2022-10-22T12:42:53;25.90;;;13.48;;
9489;SDS011;4783;42.734;23.288;2022-10-22T12:45:19;19.15;;;12.73;;
9489;SDS011;4783;42.734;23.288;2022-10-22T12:47:47;17.83;;;12.65;;
9489;SDS011;4783;42.734;23.288;2022-10-22T12:50:17;18.23;;;12.23;;
9489;SDS011;4783;42.734;23.288;2022-10-22T12:52:43;24.58;;;12.50;;
9489;SDS011;4783;42.734;23.288;2022-10-22T12:55:13;22.95;;;11.77;;
9489;SDS011;4783;42.734;23.288;2022-10-22T12:57:38;19.73;;;11.45;;
9489;SDS011;4783;42.734;23.288;2022-10-22T13:00:04;16.53;;;11.90;;
9489;SDS011;4783;42.734;23.288;2022-10-22T13:02:29;16.83;;;11.45;;
9489;SDS011;4783;42.734;23.288;2022-10-22T13:07:40;18.67;;;11.05;;
9489;SDS011;4783;42.734;23.288;2022-10-22T13:12:50;16.77;;;10.48;;
9489;SDS011;4783;42.734;23.288;2022-10-22T13:15:18;19.05;;;10.32;;
9489;SDS011;4783;42.734;23.288;2022-10-22T13:17:44;16.55;;;10.27;;
9489;SDS011;4783;42.734;23.288;2022-10-22T13:22:40;13.88;;;10.30;;
9489;SDS011;4783;42.734;23.288;2022-10-22T13:27:48;14.82;;;10.63;;
9489;SDS011;4783;42.734;23.288;2022-10-22T13:30:19;16.45;;;10.65;;
9489;SDS011;4783;42.734;23.288;2022-10-22T13:32:48;18.65;;;10.77;;
9489;SDS011;4783;42.734;23.288;2022-10-22T13:35:17;17.13;;;9.68;;
9489;SDS011;4783;42.734;23.288;2022-10-22T13:37:44;14.43;;;9.57;;
9489;SDS011;4783;42.734;23.288;2022-10-22T13:40:10;14.90;;;10.40;;
9489;SDS011;4783;42.734;23.288;2022-10-22T13:42:36;23.70;;;10.40;;
9489;SDS011;4783;42.734;23.288;2022-10-22T13:45:03;18.42;;;10.57;;
9489;SDS011;4783;42.734;23.288;2022-10-22T13:47:28;17.67;;;9.90;;
